Time;durP1;ratioP1;P1;durP2;ratioP2;P2;SDS_P1;SDS_P2;PMS_P1;PMS_P2;Temp;Humidity;BMP_temperature;BMP_pressure;BME280_temperature;BME280_humidity;BME280_pressure;Samples;Min_cycle;Max_cycle;Signal;HPM_P1;HPM_P2
2021/09/28 00:00:46;;;;;;;19.88;13.00;;;15.70;99.90;;;;;;5060548;28;20563;-71
2021/09/28 00:03:14;;;;;;;23.42;13.73;;;15.70;99.90;;;;;;5059649;28;20044;-71
2021/09/28 00:05:45;;;;;;;27.00;13.82;;;15.70;99.90;;;;;;5057693;28;20048;-71
2021/09/28 00:08:12;;;;;;;22.83;13.52;;;15.70;99.90;;;;;;5059191;28;20056;-71
2021/09/28 00:10:38;;;;;;;21.75;13.82;;;15.70;99.90;;;;;;5057416;28;20088;-71
2021/09/28 00:13:07;;;;;;;28.52;14.68;;;15.60;99.90;;;;;;5058983;28;20105;-71
2021/09/28 00:15:34;;;;;;;22.95;14.23;;;15.60;99.90;;;;;;5056391;28;20048;-71
2021/09/28 00:18:02;;;;;;;22.98;14.48;;;15.50;99.90;;;;;;5056092;28;20045;-71
2021/09/28 00:20:29;;;;;;;25.45;13.23;;;15.40;99.90;;;;;;5055914;28;20109;-71
2021/09/28 00:22:58;;;;;;;22.58;14.05;;;15.30;99.90;;;;;;5056915;28;20054;-71
2021/09/28 00:25:25;;;;;;;21.92;13.85;;;15.40;99.90;;;;;;5055852;28;20570;-70
2021/09/28 00:27:52;;;;;;;25.40;13.77;;;15.30;99.90;;;;;;5056821;28;20052;-70
2021/09/28 00:30:18;;;;;;;22.08;14.88;;;15.30;99.90;;;;;;5056577;28;20595;-70
2021/09/28 00:32:45;;;;;;;29.85;15.75;;;15.30;99.90;;;;;;5059299;28;20524;-71
2021/09/28 00:35:12;;;;;;;27.65;14.90;;;15.20;99.90;;;;;;5059063;28;20147;-70
2021/09/28 00:37:39;;;;;;;24.98;14.40;;;15.10;99.90;;;;;;5061834;28;20416;-70
2021/09/28 00:40:09;;;;;;;29.08;15.50;;;15.10;99.90;;;;;;5061404;28;20455;-70
2021/09/28 00:42:36;;;;;;;24.92;14.70;;;15.00;99.90;;;;;;5062534;28;20048;-70
2021/09/28 00:45:04;;;;;;;26.02;16.15;;;15.00;99.90;;;;;;5060566;28;20053;-70
2021/09/28 00:47:31;;;;;;;25.30;15.25;;;15.00;99.90;;;;;;5060350;28;20048;-71
2021/09/28 00:49:58;;;;;;;24.02;13.55;;;14.90;99.90;;;;;;5059728;28;20091;-70
2021/09/28 00:52:25;;;;;;;25.08;15.27;;;15.00;99.90;;;;;;5058803;28;20078;-71
2021/09/28 00:54:52;;;;;;;27.65;15.95;;;14.90;99.90;;;;;;5060002;28;20080;-70
2021/09/28 00:57:21;;;;;;;28.45;16.42;;;14.90;99.90;;;;;;5062231;28;20156;-71
2021/09/28 00:59:49;;;;;;;28.08;16.00;;;14.80;99.90;;;;;;5061640;28;20072;-70
2021/09/28 01:02:17;;;;;;;25.17;15.95;;;14.80;99.90;;;;;;5059054;28;20062;-70
2021/09/28 01:04:44;;;;;;;28.38;15.73;;;14.80;99.90;;;;;;5060970;28;20098;-70
2021/09/28 01:07:11;;;;;;;27.02;15.23;;;14.80;99.90;;;;;;5059482;28;20130;-70
2021/09/28 01:09:40;;;;;;;26.67;15.80;;;14.80;99.90;;;;;;5061277;28;20515;-71
2021/09/28 01:12:08;;;;;;;26.70;16.88;;;14.90;99.90;;;;;;5060959;28;20083;-71
2021/09/28 01:14:37;;;;;;;25.63;16.17;;;15.00;99.90;;;;;;5059369;28;20133;-70
2021/09/28 01:17:09;;;;;;;23.80;15.75;;;15.00;99.90;;;;;;5060428;28;20056;-70
2021/09/28 01:19:36;;;;;;;31.50;16.98;;;15.00;99.90;;;;;;5059118;28;20741;-70
2021/09/28 01:22:05;;;;;;;28.60;16.50;;;15.10;99.90;;;;;;5061167;28;20053;-70
2021/09/28 01:24:32;;;;;;;28.52;15.05;;;15.20;99.90;;;;;;5058254;28;20048;-70
2021/09/28 01:26:59;;;;;;;23.35;14.70;;;15.20;99.90;;;;;;5058950;28;20140;-71
2021/09/28 01:29:26;;;;;;;25.13;14.38;;;15.30;99.90;;;;;;5059197;28;20056;-70
2021/09/28 01:31:53;;;;;;;25.35;15.45;;;15.30;99.90;;;;;;5060238;28;20195;-70
2021/09/28 01:34:20;;;;;;;20.90;13.18;;;15.40;99.90;;;;;;5059503;28;20113;-70
2021/09/28 01:36:48;;;;;;;21.65;13.43;;;15.40;99.90;;;;;;5063589;28;20106;-70
2021/09/28 01:39:17;;;;;;;24.02;13.27;;;15.50;99.90;;;;;;5059116;28;20135;-70
2021/09/28 01:41:44;;;;;;;21.30;12.65;;;15.70;99.90;;;;;;5059621;28;20122;-71
2021/09/28 01:44:13;;;;;;;24.48;12.07;;;15.70;99.90;;;;;;5060175;28;20102;-70
2021/09/28 01:46:43;;;;;;;23.42;13.25;;;15.70;99.90;;;;;;5059320;28;20075;-70
2021/09/28 01:49:11;;;;;;;22.67;13.23;;;15.70;99.90;;;;;;5058889;28;20882;-71
2021/09/28 01:51:39;;;;;;;21.15;13.05;;;15.80;99.90;;;;;;5058555;28;20048;-71
2021/09/28 01:54:07;;;;;;;17.98;11.40;;;15.80;99.90;;;;;;5060325;28;20079;-71
2021/09/28 01:56:36;;;;;;;16.33;10.75;;;15.80;99.90;;;;;;5061454;28;20049;-70
2021/09/28 01:59:04;;;;;;;18.35;9.27;;;15.80;99.90;;;;;;5058044;28;20049;-70
2021/09/28 02:01:32;;;;;;;14.40;8.40;;;15.90;99.90;;;;;;5058578;28;20125;-71
2021/09/28 02:03:59;;;;;;;13.65;7.07;;;15.80;99.90;;;;;;5058753;28;20055;-70
2021/09/28 02:06:27;;;;;;;14.45;7.70;;;15.80;99.90;;;;;;5058258;28;20106;-70
2021/09/28 02:08:54;;;;;;;11.55;6.80;;;15.80;99.90;;;;;;5057336;28;20053;-70
2021/09/28 02:11:21;;;;;;;11.70;5.75;;;15.80;99.90;;;;;;5059095;28;20053;-70
2021/09/28 02:13:50;;;;;;;11.18;4.30;;;17.70;99.90;;;;;;5059364;28;20052;-71
2021/09/28 02:16:18;;;;;;;8.88;3.75;;;19.40;99.90;;;;;;5058367;28;20964;-71
2021/09/28 02:18:45;;;;;;;5.82;2.80;;;19.40;99.90;;;;;;5057522;28;20424;-72
2021/09/28 02:21:12;;;;;;;6.45;3.22;;;19.80;99.90;;;;;;5058238;28;20101;-71
2021/09/28 02:23:39;;;;;;;6.75;2.60;;;20.70;99.90;;;;;;5059980;28;20083;-72
2021/09/28 02:26:06;;;;;;;4.55;1.88;;;22.70;99.90;;;;;;5059322;28;20596;-70
2021/09/28 02:28:33;;;;;;;7.47;2.53;;;24.30;99.90;;;;;;5059826;28;20264;-71
2021/09/28 02:31:02;;;;;;;2.00;1.20;;;26.10;99.90;;;;;;5057297;28;20114;-71
2021/09/28 02:33:29;;;;;;;2.67;1.02;;;28.00;99.90;;;;;;5059509;28;20079;-70
2021/09/28 02:35:56;;;;;;;4.63;1.15;;;29.30;99.90;;;;;;5056582;28;20067;-70
2021/09/28 02:38:23;;;;;;;1.95;1.13;;;30.10;99.90;;;;;;5058365;28;20113;-71
2021/09/28 02:40:50;;;;;;;1.75;1.10;;;30.90;99.90;;;;;;5059032;28;20152;-70
2021/09/28 02:43:17;;;;;;;3.72;1.40;;;31.60;99.90;;;;;;5060756;28;20052;-71
2021/09/28 02:45:47;;;;;;;2.45;1.10;;;32.50;99.90;;;;;;5055433;28;20044;-70
2021/09/28 02:48:16;;;;;;;1.88;0.90;;;33.80;99.90;;;;;;5060490;28;20056;-70
2021/09/28 02:50:44;;;;;;;2.60;1.20;;;35.40;99.90;;;;;;5058840;28;20422;-71
2021/09/28 02:53:12;;;;;;;3.58;1.02;;;36.10;99.90;;;;;;5058087;28;20088;-70
2021/09/28 02:55:39;;;;;;;3.03;1.25;;;36.90;99.90;;;;;;5056067;28;20497;-70
2021/09/28 02:58:07;;;;;;;1.90;1.00;;;37.60;99.90;;;;;;5057112;28;20869;-73
2021/09/28 03:00:34;;;;;;;4.07;1.00;;;38.00;99.90;;;;;;5056490;28;20048;-71
2021/09/28 03:03:01;;;;;;;3.78;1.10;;;38.40;99.90;;;;;;5058361;28;20080;-70
2021/09/28 03:05:29;;;;;;;5.72;1.45;;;38.80;99.90;;;;;;5055053;28;20044;-70
2021/09/28 03:07:56;;;;;;;3.38;0.75;;;39.20;99.90;;;;;;5060228;28;20058;-71
2021/09/28 03:10:23;;;;;;;2.85;0.82;;;39.50;99.90;;;;;;5054606;28;20463;-70
2021/09/28 03:12:50;;;;;;;1.02;0.60;;;39.50;99.90;;;;;;5058282;28;20055;-70
2021/09/28 03:15:18;;;;;;;2.28;0.80;;;39.50;99.90;;;;;;5057925;28;20084;-70
2021/09/28 03:17:45;;;;;;;2.85;0.95;;;39.60;99.90;;;;;;5056757;28;20182;-71
2021/09/28 03:20:13;;;;;;;3.00;0.85;;;39.60;99.90;;;;;;5058725;28;20393;-70
2021/09/28 03:22:41;;;;;;;2.28;0.88;;;39.50;99.90;;;;;;5055289;28;20140;-70
2021/09/28 03:25:09;;;;;;;1.23;0.50;;;39.50;99.90;;;;;;5055865;28;20083;-71
2021/09/28 03:27:36;;;;;;;1.52;0.60;;;40.50;99.90;;;;;;5057903;28;20080;-70
2021/09/28 03:30:05;;;;;;;1.67;0.88;;;40.50;99.90;;;;;;5057224;28;20113;-73
2021/09/28 03:32:32;;;;;;;1.30;0.55;;;40.80;99.90;;;;;;5056222;28;20310;-70
2021/09/28 03:34:59;;;;;;;1.33;0.73;;;40.80;99.90;;;;;;5058384;28;20087;-72
2021/09/28 03:37:26;;;;;;;1.48;0.73;;;40.70;99.90;;;;;;5057145;28;20098;-73
2021/09/28 03:39:54;;;;;;;3.28;0.90;;;40.50;99.90;;;;;;5057429;28;20137;-71
2021/09/28 03:42:21;;;;;;;2.53;1.10;;;40.40;99.90;;;;;;5057769;28;20534;-73
2021/09/28 03:44:48;;;;;;;1.27;0.75;;;40.40;99.90;;;;;;5058578;28;20056;-71
2021/09/28 03:47:15;;;;;;;1.90;0.70;;;40.50;99.90;;;;;;5055931;28;20105;-73
2021/09/28 03:49:42;;;;;;;2.92;0.80;;;40.20;99.90;;;;;;5055943;28;20131;-72
2021/09/28 03:52:09;;;;;;;0.88;0.70;;;40.00;99.90;;;;;;5055655;28;20129;-72
2021/09/28 03:54:36;;;;;;;2.55;0.80;;;39.70;99.90;;;;;;5056813;28;20052;-72
2021/09/28 03:57:05;;;;;;;2.10;0.75;;;40.10;99.90;;;;;;5058591;28;20131;-73
2021/09/28 03:59:32;;;;;;;2.72;0.80;;;40.10;99.90;;;;;;5057891;28;20071;-75
2021/09/28 04:01:59;;;;;;;1.77;0.80;;;40.00;99.90;;;;;;5055991;28;20137;-72
2021/09/28 04:04:26;;;;;;;1.52;0.63;;;39.80;99.90;;;;;;5055192;28;21614;-71
2021/09/28 04:06:52;;;;;;;1.08;0.80;;;39.60;99.90;;;;;;5057663;28;20088;-70
2021/09/28 04:09:19;;;;;;;0.88;0.50;;;39.50;99.90;;;;;;5060921;28;20084;-70
2021/09/28 04:11:47;;;;;;;1.65;0.80;;;39.60;99.90;;;;;;5060842;28;20094;-73
2021/09/28 04:14:17;;;;;;;1.10;0.70;;;39.70;99.90;;;;;;5061894;28;20135;-72
2021/09/28 04:16:44;;;;;;;2.40;0.88;;;39.90;99.90;;;;;;5061127;28;20048;-69
2021/09/28 04:19:11;;;;;;;1.13;0.82;;;39.70;99.90;;;;;;5061102;28;20109;-72
2021/09/28 04:21:38;;;;;;;2.63;0.93;;;39.70;99.90;;;;;;5062935;28;20043;-70
2021/09/28 04:24:06;;;;;;;3.25;1.13;;;39.90;99.90;;;;;;5062906;28;20056;-72
2021/09/28 04:26:33;;;;;;;3.80;1.15;;;39.70;99.90;;;;;;5061544;28;20086;-70
2021/09/28 04:29:00;;;;;;;3.03;1.00;;;39.70;99.90;;;;;;5060843;28;20083;-70
2021/09/28 04:31:29;;;;;;;2.60;1.23;;;39.50;99.90;;;;;;5061637;28;20425;-71
2021/09/28 04:33:56;;;;;;;5.68;1.30;;;39.20;99.90;;;;;;5058719;28;20455;-70
2021/09/28 04:36:23;;;;;;;4.03;1.60;;;39.10;99.90;;;;;;5060530;28;20129;-72
2021/09/28 04:38:51;;;;;;;4.85;1.83;;;39.00;99.90;;;;;;5061574;28;20139;-72
2021/09/28 04:41:18;;;;;;;6.40;2.17;;;38.90;99.90;;;;;;5059558;28;20064;-70
2021/09/28 04:43:45;;;;;;;3.70;1.83;;;38.60;99.90;;;;;;5060948;28;20049;-72
2021/09/28 04:46:12;;;;;;;4.70;2.40;;;38.90;99.90;;;;;;5059535;28;20060;-70
2021/09/28 04:48:41;;;;;;;4.30;2.42;;;38.90;99.90;;;;;;5059406;28;20495;-71
2021/09/28 04:51:08;;;;;;;6.82;2.50;;;38.50;99.90;;;;;;5059423;28;20581;-71
2021/09/28 04:53:35;;;;;;;3.97;2.30;;;38.20;99.90;;;;;;5059695;28;20500;-71
2021/09/28 04:56:01;;;;;;;6.10;2.85;;;38.10;99.90;;;;;;5060549;28;20056;-73
2021/09/28 04:58:28;;;;;;;6.63;2.80;;;38.30;99.90;;;;;;5062157;28;20105;-71
2021/09/28 05:00:55;;;;;;;6.40;2.47;;;38.40;99.90;;;;;;5062342;28;20102;-70
2021/09/28 05:03:22;;;;;;;15.32;3.10;;;38.50;99.90;;;;;;5063007;28;20127;-71
2021/09/28 05:05:51;;;;;;;5.85;2.90;;;38.60;99.90;;;;;;5062471;28;20113;-71
2021/09/28 05:08:18;;;;;;;7.05;2.85;;;38.70;99.90;;;;;;5060707;28;20075;-69
2021/09/28 05:10:47;;;;;;;8.85;3.38;;;38.50;99.90;;;;;;5058981;28;20072;-69
2021/09/28 05:13:14;;;;;;;5.28;2.75;;;38.40;99.90;;;;;;5058959;28;20056;-69
2021/09/28 05:15:41;;;;;;;8.07;3.95;;;38.10;99.90;;;;;;5057334;28;20457;-69
2021/09/28 05:18:08;;;;;;;9.68;3.63;;;37.90;99.90;;;;;;5061319;28;20496;-69
2021/09/28 05:20:35;;;;;;;10.70;3.53;;;37.60;99.90;;;;;;5056264;28;20794;-69
2021/09/28 05:23:04;;;;;;;7.22;3.05;;;37.70;99.90;;;;;;5058533;28;20084;-70
2021/09/28 05:25:31;;;;;;;8.80;3.35;;;37.50;99.90;;;;;;5058450;28;20102;-71
2021/09/28 05:27:58;;;;;;;7.80;3.50;;;37.10;99.90;;;;;;5057819;28;20048;-71
2021/09/28 05:30:25;;;;;;;6.85;3.40;;;36.80;99.90;;;;;;5061137;28;20048;-71
2021/09/28 05:32:52;;;;;;;9.38;3.17;;;36.80;99.90;;;;;;5060638;28;20122;-73
2021/09/28 05:35:19;;;;;;;12.85;3.47;;;36.70;99.90;;;;;;5060744;28;20424;-70
2021/09/28 05:37:47;;;;;;;6.10;3.63;;;36.50;99.90;;;;;;5057366;28;20083;-71
2021/09/28 05:40:15;;;;;;;6.78;3.80;;;36.30;99.90;;;;;;5058833;28;20578;-70
2021/09/28 05:42:42;;;;;;;8.35;4.38;;;36.20;99.90;;;;;;5058168;28;20125;-71
2021/09/28 05:45:10;;;;;;;10.32;4.70;;;36.20;99.90;;;;;;5058690;28;20052;-72
2021/09/28 05:47:37;;;;;;;9.90;4.28;;;36.10;99.90;;;;;;5060624;28;20075;-71
2021/09/28 05:50:05;;;;;;;8.85;4.13;;;36.10;99.90;;;;;;5060580;28;20105;-71
2021/09/28 05:52:32;;;;;;;9.50;4.88;;;35.80;99.90;;;;;;5059543;28;20059;-71
2021/09/28 05:55:01;;;;;;;11.52;5.15;;;35.70;99.90;;;;;;5056676;28;20047;-72
2021/09/28 05:57:29;;;;;;;14.63;4.95;;;35.50;99.90;;;;;;5059900;28;20102;-71
2021/09/28 05:59:56;;;;;;;8.88;4.80;;;35.40;99.90;;;;;;5062140;28;20051;-71
2021/09/28 06:02:23;;;;;;;11.95;4.72;;;35.30;99.90;;;;;;5060544;28;20083;-72
2021/09/28 06:04:50;;;;;;;9.55;5.10;;;35.10;99.90;;;;;;5059652;28;20087;-73
2021/09/28 06:07:18;;;;;;;11.57;4.97;;;35.00;99.90;;;;;;5059147;28;20101;-71
2021/09/28 06:09:45;;;;;;;13.00;5.15;;;34.90;99.90;;;;;;5057807;28;20081;-71
2021/09/28 06:12:13;;;;;;;8.43;5.07;;;34.80;99.90;;;;;;5058042;28;20145;-72
2021/09/28 06:14:43;;;;;;;12.00;5.43;;;34.60;99.90;;;;;;5061612;28;20154;-71
2021/09/28 06:17:10;;;;;;;13.73;5.78;;;34.40;99.90;;;;;;5057400;28;20088;-71
2021/09/28 06:19:38;;;;;;;10.80;6.00;;;34.40;99.90;;;;;;5058737;28;20087;-72
2021/09/28 06:22:06;;;;;;;13.20;5.85;;;34.20;99.90;;;;;;5057072;28;20136;-71
2021/09/28 06:24:34;;;;;;;10.27;5.60;;;34.10;99.90;;;;;;5058128;28;20087;-71
2021/09/28 06:27:02;;;;;;;14.20;5.60;;;33.80;99.90;;;;;;5059057;28;20052;-71
2021/09/28 06:29:29;;;;;;;14.20;6.80;;;34.00;99.90;;;;;;5058405;28;20510;-71
2021/09/28 06:31:58;;;;;;;12.50;5.90;;;34.20;99.90;;;;;;5057576;28;20161;-71
2021/09/28 06:34:25;;;;;;;10.63;5.60;;;34.20;99.90;;;;;;5059547;28;20055;-71
2021/09/28 06:36:53;;;;;;;11.77;6.18;;;34.10;99.90;;;;;;5058259;28;20556;-71
2021/09/28 06:39:20;;;;;;;10.77;6.50;;;34.30;99.90;;;;;;5057242;28;20064;-72
2021/09/28 06:41:47;;;;;;;12.18;6.50;;;34.30;99.90;;;;;;5057119;28;20052;-73
2021/09/28 06:44:14;;;;;;;13.45;6.43;;;34.50;99.90;;;;;;5058309;28;20052;-72
2021/09/28 06:46:41;;;;;;;12.27;5.80;;;34.70;99.90;;;;;;5058107;28;20080;-72
2021/09/28 06:49:09;;;;;;;15.68;6.93;;;34.80;99.90;;;;;;5058528;28;20087;-72
2021/09/28 06:51:36;;;;;;;9.73;6.05;;;34.90;99.90;;;;;;5058267;28;20046;-71
2021/09/28 06:54:03;;;;;;;12.70;6.38;;;35.10;99.90;;;;;;5057938;28;20332;-72
2021/09/28 06:56:31;;;;;;;12.70;6.20;;;35.00;99.90;;;;;;5056982;28;20125;-71
2021/09/28 06:58:58;;;;;;;11.95;6.88;;;34.80;99.90;;;;;;5059145;28;20048;-73
2021/09/28 07:01:25;;;;;;;12.60;6.10;;;34.60;99.90;;;;;;5057278;28;20056;-71
2021/09/28 07:03:52;;;;;;;10.40;6.57;;;34.60;99.90;;;;;;5059871;28;20075;-71
2021/09/28 07:06:22;;;;;;;13.48;7.28;;;34.50;99.90;;;;;;5055304;28;20558;-71
2021/09/28 07:08:50;;;;;;;12.85;6.60;;;34.30;99.90;;;;;;5060052;28;20420;-71
2021/09/28 07:11:19;;;;;;;10.43;6.25;;;34.00;99.90;;;;;;5059865;28;20048;-71
2021/09/28 07:13:46;;;;;;;12.50;6.65;;;33.90;99.90;;;;;;5056261;28;20047;-73
2021/09/28 07:16:13;;;;;;;10.25;6.55;;;33.80;99.90;;;;;;5058173;28;20356;-71
2021/09/28 07:18:40;;;;;;;13.93;7.25;;;33.90;99.90;;;;;;5057433;28;20040;-73
2021/09/28 07:21:07;;;;;;;12.02;6.22;;;33.90;99.90;;;;;;5055863;28;20504;-71
2021/09/28 07:23:36;;;;;;;10.80;6.85;;;33.80;99.90;;;;;;5054451;28;20093;-72
2021/09/28 07:26:04;;;;;;;15.55;6.35;;;33.60;99.90;;;;;;5058012;28;20088;-71
2021/09/28 07:28:31;;;;;;;11.48;5.63;;;33.70;99.90;;;;;;5057018;28;20053;-71
2021/09/28 07:30:59;;;;;;;9.65;4.95;;;33.70;99.90;;;;;;5058762;28;20048;-71
2021/09/28 07:33:26;;;;;;;9.45;4.43;;;33.50;99.90;;;;;;5056408;28;20056;-71
2021/09/28 07:35:53;;;;;;;11.38;5.22;;;33.40;99.90;;;;;;5056768;28;20048;-73
2021/09/28 07:38:20;;;;;;;8.45;4.30;;;33.60;99.90;;;;;;5058307;28;20122;-71
2021/09/28 07:40:50;;;;;;;8.60;3.95;;;33.50;99.90;;;;;;5057722;28;20079;-70
2021/09/28 07:43:17;;;;;;;11.30;4.03;;;33.50;99.90;;;;;;5056761;28;20512;-70
2021/09/28 07:45:45;;;;;;;8.38;3.92;;;33.60;99.90;;;;;;5061019;28;20105;-70
2021/09/28 07:48:12;;;;;;;8.75;3.72;;;33.10;99.90;;;;;;5060853;28;20094;-72
2021/09/28 07:50:39;;;;;;;11.77;3.63;;;32.10;99.90;;;;;;5061123;28;20048;-70
2021/09/28 07:53:07;;;;;;;6.22;3.30;;;31.40;99.90;;;;;;5061515;28;20106;-70
2021/09/28 07:55:35;;;;;;;8.10;3.85;;;31.30;99.90;;;;;;5062162;28;20329;-70
2021/09/28 07:58:04;;;;;;;10.40;3.90;;;31.50;99.90;;;;;;5062031;28;20106;-71
2021/09/28 08:00:31;;;;;;;9.65;3.95;;;31.70;99.90;;;;;;5061164;28;20037;-70
2021/09/28 08:02:58;;;;;;;6.60;3.33;;;31.50;99.90;;;;;;5059372;28;20048;-70
2021/09/28 08:05:25;;;;;;;11.25;3.75;;;31.20;99.90;;;;;;5060745;28;20084;-70
2021/09/28 08:07:52;;;;;;;6.20;2.55;;;31.00;99.90;;;;;;5059796;28;20052;-70
2021/09/28 08:10:19;;;;;;;7.05;2.97;;;31.10;99.90;;;;;;5059268;28;20048;-71
2021/09/28 08:12:47;;;;;;;7.00;2.72;;;30.50;99.90;;;;;;5059529;28;20090;-72
2021/09/28 08:15:16;;;;;;;5.40;2.53;;;31.00;99.90;;;;;;5058921;28;20053;-71
2021/09/28 08:17:43;;;;;;;8.13;2.42;;;32.20;99.90;;;;;;5060853;28;20093;-71
2021/09/28 08:20:13;;;;;;;8.00;2.75;;;32.90;99.90;;;;;;5061584;28;20076;-71
2021/09/28 08:22:40;;;;;;;8.82;2.45;;;32.60;99.90;;;;;;5059370;28;20749;-72
2021/09/28 08:25:10;;;;;;;4.38;2.08;;;31.50;99.90;;;;;;5059429;28;20458;-71
2021/09/28 08:30:24;;;;;;;6.57;2.30;;;29.20;99.90;;;;;;5059828;28;20462;-72
2021/09/28 08:32:51;;;;;;;4.90;2.25;;;28.30;99.90;;;;;;5061328;28;20084;-72
2021/09/28 08:35:19;;;;;;;7.65;2.08;;;28.50;99.90;;;;;;5059827;28;20098;-71
2021/09/28 08:37:46;;;;;;;4.82;1.98;;;28.80;99.90;;;;;;5061886;28;20101;-71
2021/09/28 08:40:14;;;;;;;7.45;2.40;;;28.60;99.90;;;;;;5059089;28;20092;-71
2021/09/28 08:42:42;;;;;;;5.93;2.55;;;28.60;99.90;;;;;;5060612;28;20049;-71
2021/09/28 08:45:11;;;;;;;7.43;2.20;;;28.70;99.90;;;;;;5059057;28;20053;-71
2021/09/28 08:47:41;;;;;;;5.57;1.63;;;29.20;99.90;;;;;;5059692;28;20056;-72
2021/09/28 08:50:11;;;;;;;5.57;1.77;;;27.70;99.90;;;;;;5061454;28;20301;-70
2021/09/28 08:52:42;;;;;;;6.00;1.70;;;27.10;99.90;;;;;;5059529;28;20414;-70
2021/09/28 08:55:09;;;;;;;4.00;1.70;;;27.30;99.90;;;;;;5059041;28;20519;-70
2021/09/28 08:57:37;;;;;;;4.15;1.80;;;28.40;99.90;;;;;;5059955;28;20052;-70
2021/09/28 09:00:25;;;;;;;5.32;1.98;;;30.10;99.90;;;;;;5059826;28;20048;-72
2021/09/28 09:02:54;;;;;;;4.03;1.58;;;31.40;99.90;;;;;;5059342;28;20047;-71
2021/09/28 09:05:22;;;;;;;5.20;1.60;;;32.50;99.90;;;;;;5057866;28;20462;-71
2021/09/28 09:08:01;;;;;;;3.50;1.48;;;33.10;99.90;;;;;;5058568;28;20048;-71
2021/09/28 09:10:30;;;;;;;5.97;1.52;;;31.80;99.90;;;;;;5058832;28;20048;-70
2021/09/28 09:12:57;;;;;;;4.90;1.70;;;30.40;99.90;;;;;;5058044;28;20113;-70
2021/09/28 09:15:27;;;;;;;5.22;1.83;;;29.10;99.90;;;;;;5059119;28;20053;-70
2021/09/28 09:17:57;;;;;;;3.95;1.92;;;28.50;99.90;;;;;;5061196;28;20075;-71
2021/09/28 09:20:27;;;;;;;3.58;1.60;;;27.60;99.90;;;;;;5063766;28;20533;-70
2021/09/28 09:22:55;;;;;;;5.45;1.60;;;26.70;99.90;;;;;;5061646;28;20080;-70
2021/09/28 09:25:23;;;;;;;4.38;2.28;;;26.40;99.90;;;;;;5059992;28;20097;-70
2021/09/28 09:27:51;;;;;;;4.20;1.73;;;27.80;99.90;;;;;;5059443;28;20126;-70
2021/09/28 09:30:21;;;;;;;9.38;1.75;;;29.10;99.90;;;;;;5059913;28;20472;-70
2021/09/28 09:32:49;;;;;;;5.68;1.80;;;28.40;99.90;;;;;;5059173;28;20043;-70
2021/09/28 09:35:25;;;;;;;3.17;1.60;;;27.70;99.90;;;;;;5058669;28;20080;-71
2021/09/28 09:38:03;;;;;;;4.73;1.63;;;27.00;99.90;;;;;;5058698;28;20139;-70
2021/09/28 09:40:35;;;;;;;4.78;2.08;;;26.60;99.90;;;;;;5055443;28;20075;-70
2021/09/28 09:43:02;;;;;;;6.00;1.48;;;27.80;99.90;;;;;;5056711;28;20577;-71
2021/09/28 09:45:29;;;;;;;5.00;1.80;;;29.20;99.90;;;;;;5059118;28;20090;-71
2021/09/28 09:47:56;;;;;;;7.93;1.85;;;29.30;99.90;;;;;;5062979;28;20084;-71
2021/09/28 09:50:26;;;;;;;5.25;1.75;;;29.10;99.90;;;;;;5063077;28;20098;-70
2021/09/28 09:53:08;;;;;;;6.78;1.70;;;28.50;99.90;;;;;;5061188;28;20055;-70
2021/09/28 09:55:40;;;;;;;6.93;1.75;;;29.80;99.90;;;;;;5058010;28;20056;-70
2021/09/28 09:58:08;;;;;;;4.07;1.58;;;31.60;99.90;;;;;;5059021;28;20055;-71
2021/09/28 10:00:37;;;;;;;5.47;1.80;;;32.30;99.90;;;;;;5056833;28;20048;-70
2021/09/28 10:03:06;;;;;;;5.38;1.70;;;32.00;99.90;;;;;;5056696;28;20377;-70
2021/09/28 10:05:35;;;;;;;6.55;1.95;;;31.10;99.90;;;;;;5057648;28;20147;-70
2021/09/28 10:08:09;;;;;;;4.72;2.05;;;29.70;99.90;;;;;;5057115;28;20056;-70
2021/09/28 10:10:37;;;;;;;5.55;1.67;;;29.50;99.90;;;;;;5059523;28;20103;-72
2021/09/28 10:13:05;;;;;;;8.27;1.52;;;28.90;99.90;;;;;;5056768;28;20272;-71
2021/09/28 10:15:32;;;;;;;5.68;1.60;;;29.00;99.90;;;;;;5059094;28;20417;-71
2021/09/28 10:17:59;;;;;;;6.05;1.27;;;30.10;99.90;;;;;;5058439;28;20576;-70
2021/09/28 10:20:29;;;;;;;3.28;1.27;;;31.60;99.90;;;;;;5058500;28;20095;-70
2021/09/28 10:22:59;;;;;;;4.90;1.80;;;32.30;99.90;;;;;;5055757;28;20048;-71
2021/09/28 10:25:45;;;;;;;8.23;2.30;;;32.30;99.90;;;;;;5058786;28;20106;-71
2021/09/28 10:28:40;;;;;;;4.53;1.95;;;30.90;99.90;;;;;;5057354;28;20135;-70
2021/09/28 10:31:14;;;;;;;3.28;1.48;;;29.90;99.90;;;;;;5059685;28;20066;-70
2021/09/28 10:33:53;;;;;;;4.35;1.50;;;29.00;99.90;;;;;;5061885;28;20529;-71
2021/09/28 10:36:23;;;;;;;7.00;1.75;;;28.60;99.90;;;;;;5056964;28;20087;-70
2021/09/28 10:39:00;;;;;;;10.30;2.10;;;28.50;99.90;;;;;;5061027;28;20060;-70
2021/09/28 10:41:42;;;;;;;7.50;2.15;;;30.30;99.90;;;;;;5059864;28;20139;-70
2021/09/28 10:44:39;;;;;;;3.90;1.42;;;32.20;99.90;;;;;;5056363;28;20044;-71
2021/09/28 10:47:07;;;;;;;4.38;1.00;;;33.70;99.90;;;;;;5013746;28;20058;-70
2021/09/28 10:49:36;;;;;;;4.90;1.30;;;35.40;99.90;;;;;;5055995;28;20074;-70
2021/09/28 10:52:37;;;;;;;4.60;1.50;;;33.70;99.90;;;;;;5058021;28;20075;-70
2021/09/28 10:55:33;;;;;;;5.07;1.65;;;34.50;99.90;;;;;;5056665;28;20048;-71
2021/09/28 10:58:09;;;;;;;3.90;1.52;;;34.40;99.90;;;;;;5056575;28;20044;-70
2021/09/28 11:00:54;;;;;;;;;;;31.60;99.90;;;;;;5057446;28;20064;-71
2021/09/28 11:03:48;;;;;;;3.40;1.20;;;30.80;99.90;;;;;;5060498;28;20397;-70
2021/09/28 11:06:16;;;;;;;3.72;1.40;;;32.20;99.90;;;;;;5060486;28;20048;-70
2021/09/28 11:08:43;;;;;;;3.13;1.20;;;33.20;99.90;;;;;;5058059;28;20145;-70
2021/09/28 11:11:13;;;;;;;3.17;1.35;;;31.50;99.90;;;;;;5056414;28;21654;-70
2021/09/28 11:13:41;;;;;;;7.05;1.63;;;29.30;99.90;;;;;;5055567;28;20093;-72
2021/09/28 11:16:10;;;;;;;4.97;1.42;;;29.10;99.90;;;;;;5056899;28;21356;-71
2021/09/28 11:18:38;;;;;;;5.60;1.42;;;30.10;99.90;;;;;;5056016;28;20137;-70
2021/09/28 11:21:08;;;;;;;5.53;1.45;;;31.30;99.90;;;;;;5054533;28;20511;-70
2021/09/28 11:23:36;;;;;;;5.10;1.58;;;35.60;99.90;;;;;;5055996;28;20097;-70
2021/09/28 11:26:04;;;;;;;4.78;1.30;;;38.40;99.90;;;;;;5053694;28;20094;-69
2021/09/28 11:28:35;;;;;;;3.67;1.40;;;39.30;99.90;;;;;;5054390;28;20055;-71
2021/09/28 11:31:04;;;;;;;2.88;1.48;;;35.40;99.90;;;;;;5055641;28;20109;-70
2021/09/28 11:33:38;;;;;;;3.33;1.20;;;32.60;99.90;;;;;;5053801;28;20052;-70
2021/09/28 11:36:07;;;;;;;5.10;1.30;;;33.80;99.90;;;;;;5056204;28;20541;-70
2021/09/28 11:38:37;;;;;;;7.45;1.40;;;31.20;99.90;;;;;;5056173;28;20049;-70
2021/09/28 11:41:06;;;;;;;5.60;1.33;;;30.40;99.90;;;;;;5051265;28;20106;-70
2021/09/28 11:43:36;;;;;;;4.05;1.45;;;29.30;99.90;;;;;;5055126;28;20044;-70
2021/09/28 11:46:05;;;;;;;4.15;1.40;;;29.70;99.90;;;;;;5053356;28;20103;-70
2021/09/28 11:48:38;;;;;;;3.33;1.48;;;36.00;99.90;;;;;;5055706;28;20110;-72
2021/09/28 11:51:07;;;;;;;3.03;1.30;;;37.40;99.90;;;;;;5057147;28;20565;-70
2021/09/28 11:53:38;;;;;;;4.43;1.20;;;36.90;99.90;;;;;;5056470;28;20522;-69
2021/09/28 11:56:07;;;;;;;5.75;1.50;;;35.60;99.90;;;;;;5057299;28;20135;-70
2021/09/28 11:58:36;;;;;;;6.75;1.60;;;32.00;99.90;;;;;;5063756;28;20131;-70
2021/09/28 12:01:06;;;;;;;4.82;1.58;;;29.50;99.90;;;;;;5062291;28;20082;-70
2021/09/28 12:03:35;;;;;;;9.73;1.20;;;31.70;99.90;;;;;;5059007;28;20052;-70
2021/09/28 12:06:07;;;;;;;8.57;2.00;;;30.10;99.90;;;;;;5058957;28;20052;-70
2021/09/28 12:08:35;;;;;;;5.95;1.40;;;29.30;99.90;;;;;;5057629;28;20056;-70
2021/09/28 12:11:04;;;;;;;4.93;1.92;;;28.10;99.90;;;;;;5061516;28;20051;-71
2021/09/28 12:13:32;;;;;;;3.58;1.35;;;27.70;99.90;;;;;;5059319;28;20496;-70
2021/09/28 12:16:12;;;;;;;5.38;1.70;;;27.00;99.90;;;;;;5057005;28;20556;-70
2021/09/28 12:18:40;;;;;;;3.00;1.38;;;27.50;99.90;;;;;;5061097;28;20048;-70
2021/09/28 12:21:19;;;;;;;9.73;1.70;;;27.40;99.90;;;;;;5060482;28;20467;-70
2021/09/28 12:23:47;;;;;;;3.67;1.30;;;27.40;99.90;;;;;;5060165;28;20076;-70
2021/09/28 12:26:25;;;;;;;4.78;1.70;;;27.20;99.90;;;;;;5059140;28;20087;-70
2021/09/28 12:28:52;;;;;;;3.17;1.25;;;27.50;99.90;;;;;;5059891;28;20048;-70
2021/09/28 12:31:33;;;;;;;4.18;1.20;;;28.40;99.90;;;;;;5061443;28;20049;-70
2021/09/28 12:34:00;;;;;;;3.33;1.20;;;28.10;99.90;;;;;;5061658;28;20056;-70
2021/09/28 12:36:27;;;;;;;7.38;1.50;;;27.40;99.90;;;;;;5061855;28;20513;-71
2021/09/28 12:39:19;;;;;;;6.80;1.33;;;25.00;99.90;;;;;;5061043;28;20527;-70
2021/09/28 12:41:56;;;;;;;4.72;1.35;;;25.30;99.90;;;;;;5061572;28;20052;-72
2021/09/28 12:44:24;;;;;;;3.55;1.33;;;25.80;99.90;;;;;;5058891;28;20044;-70
2021/09/28 12:46:52;;;;;;;3.10;1.20;;;26.30;99.90;;;;;;5060099;28;20453;-70
2021/09/28 12:49:30;;;;;;;2.75;1.08;;;26.80;99.90;;;;;;5060516;28;20049;-69
2021/09/28 12:51:57;;;;;;;5.97;2.03;;;26.60;99.90;;;;;;5058671;28;20097;-72
2021/09/28 12:54:24;;;;;;;4.00;1.48;;;25.80;99.90;;;;;;5061394;28;20052;-70